Time;durP1;ratioP1;P1;durP2;ratioP2;P2;SDS_P1;SDS_P2;PMS_P1;PMS_P2;Temp;Humidity;BMP_temperature;BMP_pressure;BME280_temperature;BME280_humidity;BME280_pressure;Samples;Min_cycle;Max_cycle;Signal;HPM_P1;HPM_P2
2022/01/18 00:01:38;;;;;;;5.70;2.10;;;;;;;4.25;45.66;101455.25;18492902;32;20085;-74
2022/01/18 00:11:46;;;;;;;3.33;1.60;;;;;;;4.12;45.88;101474.53;18492638;32;20096;-73
2022/01/18 00:22:05;;;;;;;5.00;1.85;;;;;;;4.37;45.40;101496.22;18501158;32;20107;-73
2022/01/18 00:32:15;;;;;;;6.00;2.03;;;;;;;4.00;46.85;101506.78;18500666;32;20102;-72
2022/01/18 00:42:19;;;;;;;6.10;1.77;;;;;;;4.40;45.78;101517.87;18500377;32;20138;-73
2022/01/18 00:52:22;;;;;;;4.97;2.00;;;;;;;4.35;46.17;101513.34;18500233;32;20077;-72
2022/01/18 01:02:27;;;;;;;6.95;2.37;;;;;;;3.60;47.37;101531.75;18500162;32;20077;-72
2022/01/18 01:12:30;;;;;;;7.12;2.20;;;;;;;3.52;47.98;101522.78;18499668;32;20454;-73
2022/01/18 01:43:47;;;;;;;7.62;2.10;;;;;;;3.88;47.19;101599.25;18498324;32;20088;-73
2022/01/18 01:53:51;;;;;;;5.53;2.08;;;;;;;3.92;46.99;101606.31;18498544;32;20091;-72
2022/01/18 02:03:56;;;;;;;6.85;1.67;;;;;;;4.10;45.96;101616.59;18498495;32;20323;-73
2022/01/18 02:13:59;;;;;;;6.82;2.75;;;;;;;3.66;47.07;101629.28;18497861;32;20404;-72
2022/01/18 02:24:05;;;;;;;5.60;1.80;;;;;;;3.97;46.60;101646.16;18497805;32;20125;-71
2022/01/18 02:34:10;;;;;;;6.10;1.90;;;;;;;3.41;47.55;101638.44;18497255;32;20107;-72
2022/01/18 02:44:15;;;;;;;6.55;2.20;;;;;;;3.99;46.89;101654.00;18496341;32;20368;-72
2022/01/18 02:54:19;;;;;;;7.90;2.20;;;;;;;3.84;47.36;101659.34;18496778;32;20077;-73
2022/01/18 03:04:23;;;;;;;5.95;1.92;;;;;;;3.65;48.44;101667.94;18496111;32;20099;-73
2022/01/18 03:14:26;;;;;;;6.93;2.33;;;;;;;3.70;48.87;101682.84;18495797;32;20088;-73
2022/01/18 03:24:47;;;;;;;4.78;2.03;;;;;;;3.55;49.25;101701.06;18495163;32;20103;-73
2022/01/18 03:34:50;;;;;;;8.07;2.47;;;;;;;3.27;49.74;101717.84;18494707;32;20089;-73
2022/01/18 03:44:57;;;;;;;8.35;2.17;;;;;;;3.32;49.54;101733.56;18494119;32;20102;-72
2022/01/18 03:55:00;;;;;;;8.90;2.40;;;;;;;3.32;49.71;101744.75;18501109;32;20092;-73
2022/01/18 04:05:05;;;;;;;18.12;2.85;;;;;;;3.37;50.20;101768.19;18501540;32;20099;-73
2022/01/18 04:15:10;;;;;;;8.07;1.92;;;;;;;3.29;50.56;101772.09;18501224;32;20111;-73
2022/01/18 04:35:35;;;;;;;;;;;;;;;2.79;51.72;101795.41;18501182;32;20454;-72
2022/01/18 04:56:04;;;;;;;8.07;2.50;;;;;;;3.21;50.88;101814.69;18500122;32;20390;-72
2022/01/18 05:06:10;;;;;;;6.22;3.03;;;;;;;2.99;50.74;101811.03;18499324;32;20093;-72
2022/01/18 05:16:30;;;;;;;10.30;2.65;;;;;;;3.14;50.74;101835.03;18499563;32;20409;-73
2022/01/18 05:26:34;;;;;;;11.07;1.98;;;;;;;3.02;51.00;101844.72;18499395;32;20121;-72
2022/01/18 05:36:38;;;;;;;8.95;2.75;;;;;;;2.61;52.23;101855.50;18498766;32;20107;-75
2022/01/18 05:46:43;;;;;;;9.93;3.28;;;;;;;2.89;52.03;101864.72;18498107;32;20100;-72
2022/01/18 05:56:46;;;;;;;12.68;4.75;;;;;;;2.83;52.37;101889.31;18498513;32;20107;-73
2022/01/18 06:06:53;;;;;;;10.73;2.22;;;;;;;3.11;51.52;101912.28;18497980;32;20103;-73
2022/01/18 06:16:56;;;;;;;17.95;6.68;;;;;;;2.85;52.02;101924.69;18496674;32;20440;-72
2022/01/18 06:27:00;;;;;;;8.73;3.35;;;;;;;3.02;52.13;101915.28;18497596;32;20088;-72
2022/01/18 06:37:03;;;;;;;7.50;2.30;;;;;;;2.97;52.17;101928.72;18497015;32;20081;-72
2022/01/18 06:47:08;;;;;;;11.45;3.03;;;;;;;3.27;51.32;101926.91;18496165;32;20115;-73
2022/01/18 06:57:11;;;;;;;14.02;6.72;;;;;;;3.22;51.63;101940.34;18496126;32;20089;-73
2022/01/18 07:07:17;;;;;;;12.65;4.60;;;;;;;3.37;51.66;101940.25;18495575;32;20116;-72
2022/01/18 07:17:20;;;;;;;8.30;3.30;;;;;;;3.34;51.82;101946.16;18495057;32;20449;-72
2022/01/18 07:27:25;;;;;;;10.15;3.17;;;;;;;4.55;49.99;101947.00;18487534;32;20103;-72
2022/01/18 07:37:28;;;;;;;8.95;2.50;;;;;;;4.69;48.77;101939.84;18491149;32;20524;-73
2022/01/18 07:47:32;;;;;;;14.98;5.70;;;;;;;4.94;48.38;101937.53;18490920;32;76068;-72
2022/01/18 07:57:37;;;;;;;8.07;2.87;;;;;;;4.99;47.78;101947.28;18492621;32;20089;-73
2022/01/18 08:07:41;;;;;;;8.32;3.28;;;;;;;5.53;46.84;101959.13;18492310;32;20085;-73
2022/01/18 08:17:46;;;;;;;9.68;3.33;;;;;;;5.06;48.48;101976.00;18490431;32;20085;-73
2022/01/18 08:27:51;;;;;;;10.20;2.70;;;;;;;4.63;49.22;101990.41;18491098;32;20085;-73
2022/01/18 08:37:54;;;;;;;10.82;3.08;;;;;;;4.96;48.40;102005.78;18495477;32;20096;-73
2022/01/18 08:47:58;;;;;;;12.10;3.78;;;;;;;5.02;48.16;102018.12;18500206;32;20110;-73
2022/01/18 08:58:03;;;;;;;7.60;2.85;;;;;;;4.82;49.11;102042.22;18501118;32;20103;-73
2022/01/18 09:08:11;;;;;;;10.52;3.53;;;;;;;4.69;48.98;102047.63;18499571;32;20479;-74
2022/01/18 09:18:14;;;;;;;9.50;2.85;;;;;;;5.51;47.70;102081.66;18499237;32;20110;-73
2022/01/18 09:28:19;;;;;;;12.82;3.85;;;;;;;5.35;47.84;102065.41;18499093;32;20096;-74
2022/01/18 09:38:22;;;;;;;9.48;3.05;;;;;;;5.55;47.19;102055.94;18498923;32;20450;-75
2022/01/18 09:48:26;;;;;;;8.55;4.28;;;;;;;5.66;47.21;102079.72;18498311;32;20421;-74
2022/01/18 09:58:30;;;;;;;10.93;2.60;;;;;;;5.41;48.61;102082.91;18498385;32;20089;-73
2022/01/18 10:08:35;;;;;;;9.90;2.97;;;;;;;5.72;46.63;102089.50;18497747;32;20103;-73
2022/01/18 10:18:45;;;;;;;8.88;2.80;;;;;;;5.21;48.61;102081.97;18497678;32;20492;-73
2022/01/18 10:28:59;;;;;;;8.63;2.62;;;;;;;5.76;47.47;102067.19;18497905;32;20368;-76
2022/01/18 10:39:05;;;;;;;7.22;2.55;;;;;;;6.16;46.04;102071.56;18496706;32;20137;-72
2022/01/18 10:49:33;;;;;;;9.00;2.47;;;;;;;6.29;45.06;102053.94;18496319;32;20098;-75
2022/01/18 10:59:38;;;;;;;11.10;3.30;;;;;;;7.02;44.16;102068.16;18495416;32;20446;-76
2022/01/18 11:09:42;;;;;;;10.00;2.72;;;;;;;6.27;45.76;102092.78;18495887;32;20088;-72
2022/01/18 11:19:48;;;;;;;9.68;3.00;;;;;;;6.63;43.99;102089.06;18495195;32;20107;-74
2022/01/18 11:29:52;;;;;;;9.77;3.08;;;;;;;6.47;45.29;102091.03;18494897;32;20080;-75
2022/01/18 11:39:59;;;;;;;9.38;2.75;;;;;;;6.25;46.79;102086.63;18494324;32;20101;-74
2022/01/18 11:50:16;;;;;;;14.02;5.18;;;;;;;6.36;46.22;102080.19;18493440;32;20085;-72
2022/01/18 12:00:25;;;;;;;8.60;2.80;;;;;;;6.73;44.71;102065.25;18493146;32;20160;-72
2022/01/18 12:10:48;;;;;;;12.60;4.30;;;;;;;6.07;46.21;102095.38;18495665;32;20405;-71
2022/01/18 12:20:52;;;;;;;9.55;3.83;;;;;;;5.95;46.02;102108.66;18500663;32;20396;-71
2022/01/18 12:31:06;;;;;;;11.07;3.10;;;;;;;6.50;44.74;102108.44;18500630;32;20099;-72
2022/01/18 12:41:09;;;;;;;10.55;4.35;;;;;;;6.74;44.74;102092.09;18500304;32;20093;-71
2022/01/18 12:51:17;;;;;;;13.95;4.50;;;;;;;6.72;44.03;102092.03;18499546;32;20486;-72
2022/01/18 13:01:27;;;;;;;9.90;3.45;;;;;;;6.49;45.04;102104.94;18499704;32;20126;-72
2022/01/18 13:11:34;;;;;;;11.20;3.60;;;;;;;6.45;44.54;102100.47;18499394;32;20109;-72
2022/01/18 13:32:07;;;;;;;11.48;3.50;;;;;;;6.76;44.02;102106.94;18629076;31;20109;-72
2022/01/18 13:42:12;;;;;;;13.32;3.95;;;;;;;7.01;43.42;102107.91;18628459;31;20106;-72
2022/01/18 13:52:17;;;;;;;13.65;3.70;;;;;;;7.19;43.16;102106.84;18628475;31;20102;-72
2022/01/18 14:02:21;;;;;;;9.07;3.72;;;;;;;6.52;44.31;102112.84;18628503;31;20092;-71
2022/01/18 14:12:30;;;;;;;11.05;3.53;;;;;;;6.66;44.10;102112.56;18628198;31;20345;-72
2022/01/18 14:22:36;;;;;;;9.50;4.07;;;;;;;6.37;44.79;102128.66;18510815;31;20110;-72
2022/01/18 14:32:42;;;;;;;11.55;4.37;;;;;;;5.73;46.03;102134.44;18496474;32;20103;-72
2022/01/18 14:42:48;;;;;;;12.55;4.18;;;;;;;5.84;45.93;102115.06;18502509;32;20175;-72
2022/01/18 14:52:54;;;;;;;19.67;6.35;;;;;;;5.75;46.07;102106.88;18560120;32;20147;-71
2022/01/18 15:02:58;;;;;;;12.20;4.32;;;;;;;5.91;44.71;102109.34;18561473;32;20460;-72
2022/01/18 15:13:03;;;;;;;13.57;5.00;;;;;;;5.71;45.65;102144.72;18560924;32;20069;-72
2022/01/18 15:23:06;;;;;;;15.27;4.87;;;;;;;5.55;46.49;102150.91;18561120;32;20092;-72
2022/01/18 15:33:30;;;;;;;18.73;9.85;;;;;;;5.54;46.75;102144.81;18559256;32;20080;-72
2022/01/18 15:43:33;;;;;;;12.25;5.03;;;;;;;5.28;47.20;102166.91;18559123;32;20080;-72
2022/01/18 15:53:38;;;;;;;11.35;3.90;;;;;;;4.98;47.21;102195.66;18559305;32;20088;-72
2022/01/18 16:03:41;;;;;;;19.15;6.93;;;;;;;4.46;49.23;102205.16;18558395;32;20136;-72
2022/01/18 16:13:45;;;;;;;13.45;4.35;;;;;;;5.06;47.55;102190.88;18612700;31;20114;-72
2022/01/18 16:23:48;;;;;;;10.73;4.43;;;;;;;5.11;47.06;102226.53;18621737;31;20099;-72
2022/01/18 16:33:53;;;;;;;16.37;5.95;;;;;;;5.07;47.50;102223.69;18617609;31;20170;-72
2022/01/18 16:43:56;;;;;;;20.17;10.07;;;;;;;4.75;48.56;102226.47;18612451;31;20088;-71
2022/01/18 16:54:00;;;;;;;20.83;5.97;;;;;;;4.40;49.49;102259.12;18614612;31;20122;-71
2022/01/18 17:04:05;;;;;;;31.42;12.75;;;;;;;4.27;49.25;102261.06;18623744;31;20098;-72
2022/01/18 17:14:10;;;;;;;15.35;6.32;;;;;;;4.11;50.47;102258.47;18623287;31;20426;-72
2022/01/18 17:24:14;;;;;;;15.52;5.80;;;;;;;4.48;49.73;102262.12;18623299;31;20092;-72
2022/01/18 17:34:19;;;;;;;13.07;5.22;;;;;;;4.25;50.34;102249.72;18620076;31;20187;-71
2022/01/18 17:44:22;;;;;;;18.17;7.60;;;;;;;4.49;49.46;102279.41;18622906;31;20129;-72
2022/01/18 17:54:26;;;;;;;21.67;8.32;;;;;;;4.47;49.84;102299.12;18607169;31;20092;-71
2022/01/18 18:04:29;;;;;;;12.40;4.72;;;;;;;4.44;50.10;102276.56;18543868;31;20479;-71
2022/01/18 18:14:50;;;;;;;18.80;6.35;;;;;;;4.34;50.05;102290.72;18626428;31;20399;-71
2022/01/18 18:24:53;;;;;;;19.92;5.45;;;;;;;4.42;49.97;102280.78;18627199;31;20080;-71
2022/01/18 18:34:57;;;;;;;12.98;4.85;;;;;;;4.47;50.00;102292.28;18626043;31;20143;-70
2022/01/18 18:45:00;;;;;;;15.13;5.00;;;;;;;4.33;50.54;102300.97;18623177;31;20150;-72
2022/01/18 18:55:06;;;;;;;13.55;5.35;;;;;;;4.17;50.75;102279.44;18625620;31;20104;-71
2022/01/18 19:05:10;;;;;;;11.93;4.30;;;;;;;4.31;50.73;102300.87;18622354;31;20111;-71
2022/01/18 19:15:15;;;;;;;14.50;5.78;;;;;;;4.15;51.57;102261.28;18624757;31;20088;-70
2022/01/18 19:25:20;;;;;;;14.65;5.07;;;;;;;3.84;51.87;102251.88;18624377;31;20099;-71
2022/01/18 19:35:25;;;;;;;14.98;4.68;;;;;;;4.33;50.70;102293.22;18624276;31;20366;-71
2022/01/18 19:45:29;;;;;;;14.55;4.68;;;;;;;4.08;51.21;102286.69;18622759;31;20088;-70
2022/01/18 19:55:34;;;;;;;13.90;4.65;;;;;;;4.24;50.93;102324.66;18621956;31;20140;-70
2022/01/18 20:05:37;;;;;;;29.08;10.88;;;;;;;3.68;52.00;102330.19;18622633;31;20127;-70
2022/01/18 20:15:41;;;;;;;26.10;10.40;;;;;;;4.25;50.78;102332.47;18622202;31;20443;-71
2022/01/18 20:25:52;;;;;;;34.95;15.35;;;;;;;4.38;50.48;102328.00;18619283;31;20084;-71
2022/01/18 20:35:57;;;;;;;14.07;5.33;;;;;;;3.89;52.06;102311.56;18625998;31;20092;-71
2022/01/18 20:46:00;;;;;;;16.35;5.22;;;;;;;3.83;52.64;102262.97;18623069;31;20129;-71
2022/01/18 20:56:06;;;;;;;12.90;4.55;;;;;;;4.03;51.91;102286.44;18644392;31;20210;-71
2022/01/18 21:06:09;;;;;;;14.85;4.35;;;;;;;4.04;52.55;102306.34;18564044;32;20102;-70
2022/01/18 21:16:14;;;;;;;16.50;5.78;;;;;;;3.79;52.83;102361.81;18563341;32;20091;-71
2022/01/18 21:26:17;;;;;;;14.40;5.57;;;;;;;3.80;53.10;102385.97;18565418;31;20140;-71
2022/01/18 21:36:21;;;;;;;13.23;5.03;;;;;;;3.93;52.48;102393.59;18561795;32;20084;-71
2022/01/18 21:46:24;;;;;;;16.00;6.47;;;;;;;3.81;52.90;102374.81;18629729;31;20109;-70
2022/01/18 21:56:29;;;;;;;17.37;7.22;;;;;;;3.56;53.39;102365.63;18627631;31;20088;-71
2022/01/18 22:06:32;;;;;;;14.90;5.85;;;;;;;3.33;52.89;102380.69;18625273;31;20096;-71
2022/01/18 22:16:36;;;;;;;15.10;5.78;;;;;;;2.86;54.22;102382.16;18627211;31;20083;-70
2022/01/18 22:26:39;;;;;;;18.42;6.35;;;;;;;2.55;56.01;102383.72;18625895;31;20120;-71
2022/01/18 22:36:44;;;;;;;20.30;7.60;;;;;;;2.25;56.63;102380.09;18619948;31;20102;-71
2022/01/18 22:46:47;;;;;;;17.20;6.87;;;;;;;1.80;58.12;102398.72;18625803;31;20140;-71
2022/01/18 22:56:51;;;;;;;21.25;7.07;;;;;;;1.72;58.24;102392.16;18623178;31;20110;-71
2022/01/18 23:06:54;;;;;;;17.92;6.53;;;;;;;1.42;59.51;102404.75;18625386;31;20101;-70
2022/01/18 23:16:59;;;;;;;19.52;7.60;;;;;;;1.14;60.35;102395.16;18624533;31;20084;-71
2022/01/18 23:27:02;;;;;;;18.37;7.53;;;;;;;0.73;61.13;102370.94;18625013;31;20136;-70
2022/01/18 23:37:10;;;;;;;17.65;6.10;;;;;;;0.57;60.71;102371.53;18624069;31;20106;-70
2022/01/18 23:47:13;;;;;;;30.20;11.95;;;;;;;0.59;60.63;102394.00;18623361;31;20080;-70
2022/01/18 23:57:17;;;;;;;24.60;10.80;;;;;;;0.28;61.58;102378.94;18622510;31;20402;-70
